Time;durP1;ratioP1;P1;durP2;ratioP2;P2;SDS_P1;SDS_P2;PMS_P1;PMS_P2;Temp;Humidity;BMP_temperature;BMP_pressure;BME280_temperature;BME280_humidity;BME280_pressure;Samples;Min_cycle;Max_cycle;Signal;HPM_P1;HPM_P2
2022/01/19 00:00:25;;;;;;;6.50;5.30;;;5.00;57.20;;;;;;5016811;28;20212;-76
2022/01/19 00:02:52;;;;;;;6.85;5.43;;;5.10;57.50;;;;;;5016627;28;20204;-75
2022/01/19 00:05:19;;;;;;;8.82;6.18;;;5.00;57.50;;;;;;5016933;28;20728;-75
2022/01/19 00:07:47;;;;;;;8.32;6.65;;;5.00;57.70;;;;;;5016657;28;20323;-75
2022/01/19 00:10:19;;;;;;;6.50;5.90;;;5.10;57.70;;;;;;5016018;28;20307;-78
2022/01/19 00:12:46;;;;;;;7.40;5.60;;;5.10;57.70;;;;;;5016044;28;20204;-75
2022/01/19 00:15:13;;;;;;;7.10;5.25;;;5.10;57.30;;;;;;5017081;28;20218;-76
2022/01/19 00:17:40;;;;;;;5.97;5.38;;;5.10;57.30;;;;;;5019012;28;20235;-76
2022/01/19 00:20:09;;;;;;;6.80;5.18;;;5.10;57.20;;;;;;5016439;28;20226;-76
2022/01/19 00:22:37;;;;;;;5.60;4.95;;;5.10;57.10;;;;;;5015560;28;20637;-76
2022/01/19 00:25:07;;;;;;;7.78;5.80;;;5.10;57.30;;;;;;5015922;28;20211;-75
2022/01/19 00:27:34;;;;;;;7.05;5.10;;;5.10;57.50;;;;;;5015475;28;20232;-76
2022/01/19 00:30:02;;;;;;;5.70;5.00;;;5.10;57.30;;;;;;5016168;28;20281;-76
2022/01/19 00:32:29;;;;;;;5.35;4.85;;;5.10;57.00;;;;;;5015273;28;20750;-76
2022/01/19 00:34:56;;;;;;;7.43;5.82;;;5.00;57.10;;;;;;5015755;28;20235;-76
2022/01/19 00:37:23;;;;;;;7.55;5.90;;;5.10;57.20;;;;;;5015786;28;20297;-76
2022/01/19 00:39:50;;;;;;;7.30;5.30;;;5.00;56.70;;;;;;5016325;28;20650;-77
2022/01/19 00:42:18;;;;;;;7.60;5.25;;;5.00;56.90;;;;;;5017076;28;20218;-75
2022/01/19 00:44:46;;;;;;;9.38;6.18;;;4.90;57.20;;;;;;5018676;28;20682;-76
2022/01/19 00:47:13;;;;;;;7.95;5.57;;;4.90;57.50;;;;;;5017197;28;20232;-76
2022/01/19 00:49:42;;;;;;;5.97;5.38;;;4.80;57.50;;;;;;5017271;28;20299;-75
2022/01/19 00:52:09;;;;;;;7.50;5.72;;;4.70;57.80;;;;;;5017058;28;20266;-76
2022/01/19 00:54:36;;;;;;;6.63;5.65;;;4.60;58.20;;;;;;5020751;28;20214;-75
2022/01/19 00:57:03;;;;;;;8.98;6.30;;;4.50;58.70;;;;;;5019253;28;20232;-75
2022/01/19 00:59:31;;;;;;;5.90;5.05;;;4.40;59.40;;;;;;5015703;28;20262;-76
2022/01/19 01:01:58;;;;;;;6.80;5.40;;;4.40;59.40;;;;;;5015708;28;20262;-75
2022/01/19 01:04:26;;;;;;;5.97;5.30;;;4.30;59.50;;;;;;5019087;28;20231;-75
2022/01/19 01:06:53;;;;;;;11.32;6.05;;;4.20;60.20;;;;;;5021206;28;20775;-76
2022/01/19 01:09:20;;;;;;;10.73;6.18;;;4.10;60.40;;;;;;5021405;28;20204;-75
2022/01/19 01:12:00;;;;;;;7.80;6.03;;;4.10;60.70;;;;;;5019400;28;20219;-76
2022/01/19 01:18:17;;;;;;;8.88;6.25;;;3.90;61.50;;;;;;5019872;28;20238;-75
2022/01/19 01:20:05;;;;;;;8.95;6.00;;;3.80;61.90;;;;;;5021654;28;20265;-78
2022/01/19 01:22:32;;;;;;;8.55;5.65;;;3.80;62.50;;;;;;5020713;28;20235;-75
2022/01/19 01:24:59;;;;;;;9.93;6.38;;;3.70;63.10;;;;;;5015839;28;20214;-77
2022/01/19 01:27:26;;;;;;;10.40;6.07;;;3.70;63.20;;;;;;5015797;28;20273;-76
2022/01/19 01:29:53;;;;;;;9.23;5.90;;;3.60;63.20;;;;;;5016131;28;20303;-75
2022/01/19 01:32:21;;;;;;;8.77;6.13;;;3.60;63.20;;;;;;5015339;28;20227;-76
2022/01/19 01:34:48;;;;;;;8.05;5.60;;;3.60;63.10;;;;;;5016424;28;20212;-77
2022/01/19 01:37:15;;;;;;;9.63;6.45;;;3.50;63.10;;;;;;5020052;28;20227;-77
2022/01/19 01:39:42;;;;;;;7.35;5.45;;;3.50;63.20;;;;;;5034976;28;20280;-76
2022/01/19 01:42:10;;;;;;;8.23;6.47;;;3.40;63.50;;;;;;5023977;28;20211;-77
2022/01/19 01:44:38;;;;;;;9.77;6.53;;;3.30;64.10;;;;;;5032810;28;20242;-77
2022/01/19 01:47:05;;;;;;;7.55;6.10;;;3.30;64.60;;;;;;5025289;28;20289;-76
2022/01/19 01:49:47;;;;;;;7.70;6.07;;;3.30;64.90;;;;;;5016562;28;20700;-75
2022/01/19 01:55:00;;;;;;;7.35;5.45;;;3.20;65.10;;;;;;5014916;28;20609;-75
2022/01/19 01:57:27;;;;;;;7.70;5.82;;;3.20;65.60;;;;;;5014329;28;20322;-75
2022/01/19 01:59:54;;;;;;;9.43;5.93;;;3.20;66.80;;;;;;5014850;28;20220;-75
2022/01/19 02:02:21;;;;;;;8.82;6.00;;;3.10;66.20;;;;;;5013723;28;20663;-75
2022/01/19 02:04:49;;;;;;;8.40;5.55;;;3.10;66.70;;;;;;5013893;28;20240;-76
2022/01/19 02:07:32;;;;;;;6.63;5.60;;;3.10;66.60;;;;;;5013635;28;20220;-76
2022/01/19 02:10:02;;;;;;;7.63;5.63;;;3.10;66.80;;;;;;5013645;28;20610;-75
2022/01/19 02:23:48;;;;;;;9.85;5.95;;;2.80;69.40;;;;;;5018974;28;20663;-78
2022/01/19 02:26:21;;;;;;;8.00;5.50;;;2.80;70.00;;;;;;5027130;28;20239;-77
2022/01/19 02:29:00;;;;;;;9.95;6.25;;;2.80;70.10;;;;;;5029982;28;20239;-77
2022/01/19 02:36:28;;;;;;;9.73;6.78;;;2.70;70.10;;;;;;5032231;28;20207;-78
2022/01/19 02:40:12;;;;;;;14.32;7.85;;;2.70;70.10;;;;;;5010986;28;20248;-77
2022/01/19 02:42:52;;;;;;;10.40;6.40;;;2.70;69.90;;;;;;5007791;28;20279;-78
2022/01/19 02:50:54;;;;;;;11.80;7.30;;;2.60;69.40;;;;;;5009387;28;20208;-77
2022/01/19 02:53:22;;;;;;;9.32;7.07;;;2.50;70.10;;;;;;5004079;28;20205;-76
2022/01/19 02:55:49;;;;;;;11.23;7.68;;;2.50;70.90;;;;;;5005506;28;20259;-76
2022/01/19 02:58:19;;;;;;;10.32;6.43;;;2.60;71.00;;;;;;5004950;28;20239;-77
2022/01/19 03:09:07;;;;;;;9.60;6.35;;;2.60;69.30;;;;;;4905940;28;20196;-76
2022/01/19 03:11:36;;;;;;;8.30;6.43;;;2.60;69.40;;;;;;4994425;28;20324;-77
2022/01/19 03:14:04;;;;;;;10.90;6.80;;;2.70;69.10;;;;;;5000617;28;20224;-77
2022/01/19 03:16:31;;;;;;;9.13;6.60;;;2.70;68.30;;;;;;5015560;28;20212;-77
2022/01/19 03:18:58;;;;;;;9.60;6.93;;;2.60;68.10;;;;;;5015067;28;20196;-77
2022/01/19 03:21:25;;;;;;;9.18;6.90;;;2.50;68.40;;;;;;5017252;28;20262;-77
2022/01/19 03:23:51;;;;;;;11.18;6.50;;;2.40;69.20;;;;;;5016951;28;20215;-77
2022/01/19 03:26:20;;;;;;;8.80;6.13;;;2.30;69.80;;;;;;5014770;28;20258;-77
2022/01/19 03:28:46;;;;;;;9.88;6.95;;;2.20;70.60;;;;;;5014910;28;20210;-77
2022/01/19 03:31:13;;;;;;;8.75;7.45;;;2.20;70.60;;;;;;5018092;28;20265;-76
2022/01/19 03:33:40;;;;;;;9.95;6.80;;;2.20;72.30;;;;;;5017867;28;20220;-77
2022/01/19 03:36:07;;;;;;;9.98;7.28;;;2.20;72.00;;;;;;5016204;28;20212;-77
2022/01/19 03:38:34;;;;;;;10.23;7.57;;;2.30;72.40;;;;;;5019897;28;20235;-76
2022/01/19 03:41:01;;;;;;;9.43;7.45;;;2.20;72.20;;;;;;5024567;28;20212;-77
2022/01/19 03:43:29;;;;;;;11.50;7.60;;;2.20;72.40;;;;;;5016526;28;20295;-77
2022/01/19 03:45:59;;;;;;;11.75;7.32;;;2.30;71.90;;;;;;5024486;28;20239;-77
2022/01/19 03:48:42;;;;;;;9.13;7.15;;;2.30;71.50;;;;;;5027369;28;20227;-77
2022/01/19 03:51:09;;;;;;;9.45;7.35;;;2.40;71.10;;;;;;5016340;28;20200;-77
2022/01/19 03:53:36;;;;;;;11.95;8.02;;;2.30;70.70;;;;;;5015810;28;20226;-77
2022/01/19 03:56:04;;;;;;;14.38;8.05;;;2.30;70.80;;;;;;5015379;28;20257;-77
2022/01/19 03:58:32;;;;;;;10.93;7.88;;;2.30;71.20;;;;;;5028770;28;20319;-77
2022/01/19 04:00:59;;;;;;;14.25;8.00;;;2.30;71.40;;;;;;5015778;28;20668;-78
2022/01/19 04:03:39;;;;;;;12.65;8.63;;;2.30;70.70;;;;;;5014450;28;20243;-77
2022/01/19 04:06:16;;;;;;;12.00;8.30;;;2.30;70.70;;;;;;5018592;28;20211;-77
2022/01/19 04:08:43;;;;;;;13.18;8.25;;;2.30;71.00;;;;;;5022287;28;20239;-78
2022/01/19 04:11:10;;;;;;;10.25;7.40;;;2.40;70.80;;;;;;5022936;28;20204;-77
2022/01/19 04:14:21;;;;;;;16.40;8.40;;;2.30;70.70;;;;;;5024352;28;20204;-77
2022/01/19 04:16:33;;;;;;;11.13;8.20;;;2.30;70.70;;;;;;5026743;28;20231;-78
2022/01/19 04:19:09;;;;;;;12.60;8.90;;;2.30;70.70;;;;;;5030833;28;20302;-76
2022/01/19 04:21:36;;;;;;;15.95;8.98;;;2.20;70.60;;;;;;5031769;28;20242;-76
2022/01/19 04:24:03;;;;;;;10.70;8.95;;;2.20;70.60;;;;;;5028020;28;20335;-78
2022/01/19 04:26:31;;;;;;;15.77;10.10;;;2.20;70.70;;;;;;5038267;28;20218;-77
2022/01/19 04:29:00;;;;;;;11.02;8.23;;;2.10;71.50;;;;;;5039186;28;20184;-76
2022/01/19 04:31:27;;;;;;;10.43;8.32;;;2.10;71.10;;;;;;5038958;28;20216;-76
2022/01/19 04:33:58;;;;;;;10.40;8.23;;;2.10;71.40;;;;;;5038827;28;20230;-77
2022/01/19 04:36:31;;;;;;;11.98;8.55;;;2.10;71.80;;;;;;5033056;28;20250;-77
2022/01/19 04:39:24;;;;;;;12.55;8.60;;;2.00;72.20;;;;;;5031808;28;20223;-77
2022/01/19 04:44:54;;;;;;;16.08;8.35;;;2.00;73.20;;;;;;5024550;28;20188;-77
2022/01/19 05:03:54;;;;;;;12.00;8.05;;;1.60;75.10;;;;;;5016998;28;20272;-77
2022/01/19 05:06:22;;;;;;;12.40;7.88;;;1.60;76.00;;;;;;5021224;28;20238;-77
2022/01/19 05:14:17;;;;;;;12.07;8.57;;;1.50;76.90;;;;;;5018354;28;20263;-77
2022/01/19 05:16:45;;;;;;;17.67;8.70;;;1.50;77.30;;;;;;5018025;28;20310;-80
2022/01/19 05:19:12;;;;;;;14.85;8.80;;;1.50;78.20;;;;;;5017416;28;20228;-77
2022/01/19 05:21:39;;;;;;;14.65;8.75;;;1.40;78.40;;;;;;5017874;28;20238;-77
2022/01/19 05:24:07;;;;;;;12.60;8.65;;;1.40;78.40;;;;;;5018158;28;20220;-77
2022/01/19 05:26:36;;;;;;;13.23;8.70;;;1.40;78.80;;;;;;5016757;28;20239;-76
2022/01/19 05:29:04;;;;;;;16.73;8.85;;;1.40;79.50;;;;;;5016153;28;20291;-77
2022/01/19 05:31:30;;;;;;;14.80;8.85;;;1.30;79.50;;;;;;5015425;28;20299;-77
2022/01/19 05:33:59;;;;;;;13.13;8.10;;;1.30;80.50;;;;;;5017672;28;20222;-78
2022/01/19 05:36:26;;;;;;;14.07;9.23;;;1.30;81.10;;;;;;5025357;28;20299;-77
2022/01/19 05:38:53;;;;;;;14.40;8.75;;;1.30;81.60;;;;;;5021838;28;20228;-77
2022/01/19 05:41:20;;;;;;;10.80;8.13;;;1.30;82.40;;;;;;5026699;28;20612;-77
2022/01/19 05:43:47;;;;;;;14.43;8.43;;;1.30;82.80;;;;;;5021060;28;20213;-78
2022/01/19 05:46:14;;;;;;;15.27;9.20;;;1.30;84.20;;;;;;5019222;28;20204;-76
2022/01/19 05:48:41;;;;;;;14.90;9.73;;;1.30;85.00;;;;;;5017282;28;20298;-78
2022/01/19 05:51:09;;;;;;;13.73;10.73;;;1.30;85.80;;;;;;5022095;28;20212;-78
2022/01/19 05:53:36;;;;;;;14.85;10.15;;;1.30;86.80;;;;;;5019043;28;20623;-78
2022/01/19 05:56:03;;;;;;;12.73;9.85;;;1.30;88.00;;;;;;5015594;28;20573;-76
2022/01/19 05:58:30;;;;;;;14.35;9.70;;;1.30;88.60;;;;;;5015018;28;20652;-76
2022/01/19 06:00:57;;;;;;;16.17;11.43;;;1.20;88.70;;;;;;5015203;28;20204;-78
2022/01/19 06:03:24;;;;;;;18.60;11.05;;;1.20;90.10;;;;;;5015956;28;20219;-77
2022/01/19 06:05:51;;;;;;;16.45;10.50;;;1.20;90.10;;;;;;5015831;28;20287;-77
2022/01/19 06:08:39;;;;;;;14.60;10.05;;;1.20;90.10;;;;;;5015492;28;20228;-78
2022/01/19 06:11:06;;;;;;;13.80;10.32;;;1.10;90.10;;;;;;5017291;28;20211;-78
2022/01/19 06:13:33;;;;;;;14.18;10.05;;;1.10;90.20;;;;;;5017819;28;20208;-77
2022/01/19 06:16:05;;;;;;;17.73;11.25;;;1.00;90.60;;;;;;5019405;28;20298;-78
2022/01/19 06:18:33;;;;;;;15.40;10.50;;;1.00;90.60;;;;;;5017696;28;20274;-76
2022/01/19 06:21:00;;;;;;;14.45;10.38;;;0.90;90.80;;;;;;5017963;28;20207;-77
2022/01/19 06:23:28;;;;;;;13.65;10.15;;;0.80;91.20;;;;;;5020845;28;20235;-77
2022/01/19 06:25:55;;;;;;;16.90;10.77;;;0.80;91.50;;;;;;5023131;28;20204;-78
2022/01/19 06:28:22;;;;;;;18.98;11.45;;;0.70;92.00;;;;;;5019956;28;20258;-77
2022/01/19 06:30:48;;;;;;;15.68;10.82;;;0.70;92.30;;;;;;5022535;28;20228;-77
2022/01/19 06:33:15;;;;;;;16.40;10.88;;;0.60;92.80;;;;;;5025316;28;20235;-77
2022/01/19 06:35:42;;;;;;;16.45;11.10;;;0.70;93.50;;;;;;5025292;28;20231;-77
2022/01/19 06:38:09;;;;;;;16.90;11.90;;;0.60;93.50;;;;;;5019026;28;20224;-77
2022/01/19 06:40:37;;;;;;;14.93;11.90;;;0.70;93.60;;;;;;5016521;28;20212;-77
2022/01/19 06:43:05;;;;;;;15.95;10.70;;;0.60;93.50;;;;;;5015049;28;20212;-77
2022/01/19 06:45:32;;;;;;;18.88;12.88;;;0.50;94.00;;;;;;5016305;28;20215;-77
2022/01/19 06:47:59;;;;;;;14.98;10.93;;;0.50;94.20;;;;;;5021541;28;20224;-76
2022/01/19 06:50:26;;;;;;;14.63;11.55;;;0.50;94.60;;;;;;5026677;28;20239;-77
2022/01/19 06:52:53;;;;;;;15.82;11.32;;;0.40;95.10;;;;;;5031927;28;20306;-78
2022/01/19 06:55:20;;;;;;;14.15;10.55;;;0.40;95.20;;;;;;5023826;28;20271;-77
2022/01/19 06:57:49;;;;;;;16.95;11.93;;;0.30;95.30;;;;;;5024436;28;20303;-78
2022/01/19 07:00:16;;;;;;;16.73;11.45;;;0.30;95.80;;;;;;5027132;28;20207;-76
2022/01/19 07:02:43;;;;;;;14.65;10.75;;;0.30;96.40;;;;;;5022044;28;20265;-77
2022/01/19 07:05:10;;;;;;;14.98;10.52;;;0.40;96.90;;;;;;5017292;28;20594;-78
2022/01/19 07:07:38;;;;;;;19.98;11.15;;;0.40;96.90;;;;;;5016106;28;20232;-77
2022/01/19 07:10:06;;;;;;;19.33;12.13;;;0.30;96.80;;;;;;5016116;28;20564;-77
2022/01/19 07:12:33;;;;;;;17.10;10.43;;;0.30;96.90;;;;;;5016165;28;20212;-77
2022/01/19 07:15:01;;;;;;;16.75;11.18;;;0.40;97.10;;;;;;5017687;28;20242;-79
2022/01/19 07:17:28;;;;;;;17.75;12.65;;;0.40;97.50;;;;;;5016307;28;20236;-78
2022/01/19 07:19:55;;;;;;;19.55;10.95;;;0.40;97.80;;;;;;5015894;28;20235;-79
2022/01/19 07:22:22;;;;;;;17.40;11.77;;;0.30;97.40;;;;;;5015718;28;20214;-77
2022/01/19 07:24:49;;;;;;;17.75;11.52;;;0.30;97.80;;;;;;5016541;28;20212;-77
2022/01/19 07:27:16;;;;;;;15.05;11.57;;;0.40;98.40;;;;;;5016757;28;20313;-77
2022/01/19 07:29:43;;;;;;;17.70;11.35;;;0.40;98.50;;;;;;5026351;28;20242;-78
2022/01/19 07:32:12;;;;;;;24.60;11.98;;;0.40;98.60;;;;;;5026766;28;20203;-78
2022/01/19 07:34:39;;;;;;;19.75;12.77;;;0.50;98.60;;;;;;5025005;28;20311;-79
2022/01/19 07:37:06;;;;;;;18.55;12.65;;;0.50;98.70;;;;;;5025332;28;20231;-77
2022/01/19 07:39:33;;;;;;;18.73;11.32;;;0.60;98.70;;;;;;5026856;28;20234;-77
2022/01/19 07:42:00;;;;;;;23.00;13.00;;;0.70;98.70;;;;;;5035452;28;20248;-77
2022/01/19 07:44:27;;;;;;;19.10;12.60;;;0.70;98.60;;;;;;5039868;28;20200;-76
2022/01/19 07:46:54;;;;;;;25.27;12.20;;;0.70;98.70;;;;;;5040599;28;20224;-77
2022/01/19 07:49:22;;;;;;;21.52;12.75;;;0.80;98.10;;;;;;5040932;28;20215;-77
2022/01/19 07:51:49;;;;;;;17.70;11.38;;;0.80;98.10;;;;;;5037597;28;20215;-76
2022/01/19 07:54:16;;;;;;;17.98;13.35;;;0.80;97.80;;;;;;5025569;28;20587;-77
2022/01/19 07:56:43;;;;;;;15.35;11.85;;;0.80;98.00;;;;;;5020185;28;20239;-77
2022/01/19 07:59:10;;;;;;;18.25;12.10;;;0.90;98.00;;;;;;5024125;28;20227;-77
2022/01/19 08:01:37;;;;;;;18.58;12.23;;;0.90;97.60;;;;;;5021738;28;20207;-77
2022/01/19 08:04:04;;;;;;;17.45;12.93;;;0.90;97.70;;;;;;5024594;28;20231;-77
2022/01/19 08:06:32;;;;;;;21.17;15.15;;;0.90;97.30;;;;;;5022194;28;20243;-77
2022/01/19 08:08:59;;;;;;;19.10;13.73;;;1.00;97.70;;;;;;5021213;28;20207;-77
2022/01/19 08:11:26;;;;;;;31.25;14.60;;;1.00;97.30;;;;;;5020319;28;20231;-77
2022/01/19 08:13:53;;;;;;;19.88;13.70;;;1.00;97.50;;;;;;5020525;28;20294;-77
2022/01/19 08:16:21;;;;;;;18.10;12.75;;;1.10;97.40;;;;;;5023352;28;20258;-77
2022/01/19 08:18:48;;;;;;;21.88;13.88;;;1.10;97.50;;;;;;5057358;23;20292;-77
2022/01/19 08:21:15;;;;;;;25.08;13.15;;;1.20;97.20;;;;;;5041068;28;20246;-77
2022/01/19 08:23:44;;;;;;;25.52;14.13;;;1.20;96.80;;;;;;5038791;28;20213;-77
2022/01/19 08:26:13;;;;;;;22.08;13.07;;;1.30;96.30;;;;;;5039427;28;20230;-78
2022/01/19 08:28:40;;;;;;;21.60;13.70;;;1.30;95.50;;;;;;5040296;28;20231;-77
2022/01/19 08:31:07;;;;;;;18.75;13.30;;;1.30;95.20;;;;;;5038168;28;20663;-76
2022/01/19 08:33:34;;;;;;;16.95;13.25;;;1.40;94.60;;;;;;5040040;28;20234;-77
2022/01/19 08:36:00;;;;;;;21.38;12.85;;;1.40;94.10;;;;;;5037879;28;20207;-75
2022/01/19 08:38:27;;;;;;;19.65;13.32;;;1.40;93.90;;;;;;5038676;28;20235;-77
2022/01/19 08:40:56;;;;;;;17.88;12.68;;;1.40;93.70;;;;;;5037222;28;20226;-77
2022/01/19 08:43:23;;;;;;;20.20;13.55;;;1.40;93.20;;;;;;5038588;28;20301;-75
2022/01/19 08:45:50;;;;;;;22.52;14.70;;;1.40;93.20;;;;;;5036371;28;20203;-76
2022/01/19 08:48:18;;;;;;;18.00;14.30;;;1.40;93.10;;;;;;5038127;28;20318;-76
2022/01/19 08:50:45;;;;;;;22.15;14.57;;;1.50;93.10;;;;;;5035438;28;20233;-76
2022/01/19 08:53:13;;;;;;;25.27;15.27;;;1.60;92.90;;;;;;5035634;28;20702;-76
2022/01/19 08:55:40;;;;;;;20.77;14.48;;;1.70;92.40;;;;;;5039262;28;20211;-75
2022/01/19 08:58:10;;;;;;;24.80;14.35;;;1.70;92.00;;;;;;5038480;28;20778;-75
2022/01/19 09:00:38;;;;;;;24.88;16.20;;;1.80;91.50;;;;;;5039438;28;20231;-76
2022/01/19 09:03:07;;;;;;;23.30;15.45;;;1.80;90.40;;;;;;5041971;28;20289;-75
2022/01/19 09:05:34;;;;;;;21.38;14.13;;;1.80;90.40;;;;;;5037363;28;20219;-75
2022/01/19 09:08:05;;;;;;;19.02;13.90;;;1.80;90.30;;;;;;5037919;28;20223;-76
2022/01/19 09:10:32;;;;;;;21.15;14.18;;;1.90;90.10;;;;;;5043350;28;20203;-75
2022/01/19 09:12:59;;;;;;;22.70;13.60;;;2.00;88.90;;;;;;5046505;28;20218;-76
2022/01/19 09:15:27;;;;;;;22.60;14.65;;;2.00;87.80;;;;;;5040541;28;20282;-75
2022/01/19 09:17:54;;;;;;;23.33;14.20;;;2.00;87.10;;;;;;5041874;28;20235;-74
2022/01/19 09:20:21;;;;;;;21.60;12.52;;;2.10;86.30;;;;;;5044581;28;20269;-75
2022/01/19 09:22:55;;;;;;;18.10;11.70;;;2.20;84.80;;;;;;5047258;28;20238;-75
2022/01/19 09:25:22;;;;;;;19.55;12.63;;;2.30;83.30;;;;;;5050317;28;20251;-77
2022/01/19 09:27:49;;;;;;;19.27;12.45;;;2.30;81.50;;;;;;5050695;28;20605;-76
2022/01/19 09:30:22;;;;;;;17.60;12.60;;;2.40;81.00;;;;;;5052792;28;20204;-77
2022/01/19 09:36:06;;;;;;;22.23;13.55;;;2.40;79.20;;;;;;5043639;28;20235;-77
2022/01/19 09:38:41;;;;;;;19.08;13.02;;;2.50;78.80;;;;;;5040607;28;20590;-77
2022/01/19 09:41:09;;;;;;;15.77;12.05;;;2.50;77.40;;;;;;5038327;28;20269;-76
2022/01/19 09:43:36;;;;;;;17.75;13.00;;;2.50;77.30;;;;;;5035638;28;20208;-76
2022/01/19 09:46:04;;;;;;;18.50;12.70;;;2.60;77.70;;;;;;5035965;28;20261;-76
2022/01/19 09:48:33;;;;;;;17.83;12.52;;;2.80;76.70;;;;;;5035580;28;20295;-76
2022/01/19 09:51:00;;;;;;;16.55;12.32;;;2.80;75.00;;;;;;5039289;28;20277;-77
2022/01/19 09:53:27;;;;;;;19.83;12.18;;;2.80;74.60;;;;;;5040186;28;20583;-75
2022/01/19 09:55:54;;;;;;;17.98;12.88;;;2.90;74.20;;;;;;5044686;28;20207;-78
2022/01/19 09:58:22;;;;;;;17.30;12.50;;;3.00;73.80;;;;;;5052956;28;20292;-76
2022/01/19 10:00:49;;;;;;;17.35;12.20;;;3.00;73.00;;;;;;5048197;28;20260;-77
2022/01/19 10:03:19;;;;;;;17.92;12.43;;;3.00;72.10;;;;;;5054443;28;20211;-76
2022/01/19 10:06:02;;;;;;;23.05;13.00;;;3.00;71.90;;;;;;5040746;28;20727;-75
2022/01/19 10:08:32;;;;;;;19.55;12.05;;;3.10;71.40;;;;;;5035683;28;20250;-77
2022/01/19 10:11:27;;;;;;;18.50;11.65;;;3.20;71.50;;;;;;5036883;28;20548;-77
2022/01/19 10:17:00;;;;;;;16.40;11.00;;;3.20;68.80;;;;;;5037985;28;20258;-76
2022/01/19 10:19:29;;;;;;;17.80;11.77;;;3.20;68.80;;;;;;5037507;28;20293;-76
2022/01/19 10:22:12;;;;;;;17.83;11.95;;;3.30;68.70;;;;;;5038184;28;20742;-77
2022/01/19 10:24:50;;;;;;;17.08;11.98;;;3.30;68.10;;;;;;5043677;28;20241;-77
2022/01/19 10:27:29;;;;;;;19.85;12.57;;;3.40;68.10;;;;;;5045723;28;20587;-75
2022/01/19 10:30:11;;;;;;;19.13;11.57;;;3.50;68.10;;;;;;5040123;28;20285;-76
2022/01/19 10:32:40;;;;;;;17.92;11.57;;;3.60;67.50;;;;;;5035096;28;20627;-76
2022/01/19 10:35:14;;;;;;;17.75;12.20;;;3.70;66.90;;;;;;5034436;28;20211;-76
2022/01/19 10:37:44;;;;;;;17.17;12.75;;;3.70;66.40;;;;;;5033878;28;20292;-75
2022/01/19 10:40:15;;;;;;;14.45;11.43;;;3.80;66.00;;;;;;5033663;28;20230;-76
2022/01/19 10:42:42;;;;;;;16.70;12.45;;;3.80;65.70;;;;;;5033550;28;20294;-76
2022/01/19 10:45:11;;;;;;;18.70;12.80;;;3.80;65.00;;;;;;5036427;28;20279;-78
2022/01/19 10:47:44;;;;;;;18.95;12.43;;;3.90;65.00;;;;;;5036918;28;20353;-77
2022/01/19 10:50:13;;;;;;;20.20;13.85;;;3.90;64.80;;;;;;5034679;28;20231;-77
2022/01/19 10:52:43;;;;;;;24.27;11.55;;;4.10;64.30;;;;;;5034055;28;20207;-77
2022/01/19 10:55:12;;;;;;;18.58;12.30;;;4.10;63.60;;;;;;5036028;28;20211;-78
2022/01/19 10:57:42;;;;;;;15.77;11.77;;;4.10;63.50;;;;;;5035282;28;20227;-77
2022/01/19 11:00:15;;;;;;;17.35;13.23;;;4.10;64.20;;;;;;5034858;28;20277;-76
2022/01/19 11:02:43;;;;;;;18.98;12.45;;;4.10;63.50;;;;;;5037335;28;20207;-76
2022/01/19 11:05:11;;;;;;;17.10;11.18;;;4.00;63.50;;;;;;5042850;28;20298;-77
2022/01/19 11:07:38;;;;;;;17.13;11.57;;;4.10;63.50;;;;;;5036934;28;20295;-76
2022/01/19 11:10:12;;;;;;;17.50;11.80;;;4.20;63.60;;;;;;5035849;28;20203;-77
2022/01/19 11:12:45;;;;;;;17.73;11.82;;;4.20;63.70;;;;;;5036093;28;20206;-78
2022/01/19 11:15:14;;;;;;;17.20;11.48;;;4.30;63.10;;;;;;5044410;28;20214;-75
2022/01/19 11:17:40;;;;;;;15.32;10.32;;;4.40;63.10;;;;;;5042789;28;20243;-77
2022/01/19 11:20:11;;;;;;;14.30;10.43;;;4.40;61.80;;;;;;5042886;28;20231;-78
2022/01/19 11:23:00;;;;;;;16.65;10.20;;;4.50;61.50;;;;;;5041704;28;20238;-76
2022/01/19 11:25:51;;;;;;;20.23;11.93;;;4.70;61.00;;;;;;5040956;28;20211;-81
2022/01/19 11:28:32;;;;;;;18.17;11.15;;;4.90;59.80;;;;;;5040581;28;20227;-75
2022/01/19 11:30:59;;;;;;;21.88;11.45;;;5.10;58.90;;;;;;5039770;28;20213;-76
2022/01/19 11:33:27;;;;;;;14.68;10.73;;;5.30;58.50;;;;;;5040291;28;20241;-76
2022/01/19 11:35:57;;;;;;;16.00;10.93;;;5.50;58.00;;;;;;5040879;28;20685;-77
2022/01/19 11:38:31;;;;;;;16.05;10.48;;;5.70;56.20;;;;;;5040241;28;20227;-75
2022/01/19 11:41:00;;;;;;;13.18;10.02;;;5.90;55.10;;;;;;5040228;28;20215;-76
2022/01/19 11:43:30;;;;;;;18.17;12.20;;;6.10;54.70;;;;;;5041400;28;20634;-77
2022/01/19 11:45:58;;;;;;;33.95;14.40;;;6.20;53.40;;;;;;5044135;28;20226;-77
2022/01/19 11:48:28;;;;;;;14.43;10.75;;;6.20;53.80;;;;;;5048704;28;20254;-76
2022/01/19 11:51:16;;;;;;;15.77;8.82;;;6.10;53.10;;;;;;5044262;28;20199;-76
2022/01/19 11:54:15;;;;;;;18.92;12.10;;;6.00;52.90;;;;;;5041442;28;20625;-76
2022/01/19 11:57:12;;;;;;;15.98;11.35;;;5.90;53.30;;;;;;5043406;28;20704;-77
2022/01/19 12:00:15;;;;;;;20.95;11.13;;;5.70;54.00;;;;;;5046845;28;20380;-75
2022/01/19 12:02:46;;;;;;;17.60;10.45;;;5.60;54.10;;;;;;5054452;28;20684;-77
2022/01/19 12:05:29;;;;;;;13.98;10.45;;;5.60;54.50;;;;;;5055642;28;20238;-76
2022/01/19 12:07:59;;;;;;;22.08;12.10;;;5.60;55.10;;;;;;5050272;28;20242;-76
2022/01/19 12:10:46;;;;;;;17.80;11.75;;;5.60;55.20;;;;;;5037860;28;20280;-76
2022/01/19 12:13:34;;;;;;;16.45;10.82;;;5.50;55.80;;;;;;5041780;28;20204;-76
2022/01/19 12:16:05;;;;;;;16.90;10.68;;;5.50;55.80;;;;;;5053262;28;20229;-75
2022/01/19 12:18:46;;;;;;;13.63;10.60;;;5.50;55.80;;;;;;5054065;28;20243;-75
2022/01/19 12:21:15;;;;;;;17.58;13.27;;;5.50;55.80;;;;;;5050988;28;20329;-75
2022/01/19 12:23:43;;;;;;;16.50;12.50;;;5.50;55.80;;;;;;5054458;28;20238;-75
2022/01/19 12:26:10;;;;;;;16.90;11.40;;;5.50;55.80;;;;;;5041988;28;20679;-76
2022/01/19 12:28:56;;;;;;;16.95;11.60;;;5.60;55.80;;;;;;5039324;28;20245;-75
2022/01/19 12:31:38;;;;;;;18.33;11.35;;;5.60;55.80;;;;;;5039829;28;20207;-76
2022/01/19 12:34:21;;;;;;;15.02;11.55;;;5.60;56.60;;;;;;5042521;28;20214;-75
2022/01/19 12:36:54;;;;;;;16.67;11.85;;;5.60;55.80;;;;;;5041316;28;20213;-76
2022/01/19 12:39:35;;;;;;;17.63;12.10;;;5.60;55.80;;;;;;5041159;28;20200;-77
2022/01/19 12:42:04;;;;;;;19.50;12.23;;;5.60;55.80;;;;;;5038208;28;20207;-75
2022/01/19 12:44:53;;;;;;;17.42;12.02;;;5.60;55.80;;;;;;5036380;28;20294;-75
2022/01/19 12:47:46;;;;;;;15.50;11.60;;;5.60;55.80;;;;;;5036304;28;20227;-75
2022/01/19 12:50:49;;;;;;;18.45;13.23;;;5.60;55.80;;;;;;5025748;28;20215;-73
2022/01/19 12:53:26;;;;;;;21.00;11.88;;;5.60;55.80;;;;;;5035685;28;20210;-77
2022/01/19 12:55:57;;;;;;;15.55;11.63;;;5.50;55.80;;;;;;5037377;28;20257;-77
2022/01/19 12:58:32;;;;;;;19.30;12.02;;;5.40;56.30;;;;;;5040017;28;20619;-77
2022/01/19 13:01:03;;;;;;;17.45;11.15;;;5.50;56.10;;;;;;5037833;28;20325;-77
2022/01/19 13:03:35;;;;;;;15.32;12.13;;;5.40;55.90;;;;;;5036670;28;20310;-76
2022/01/19 13:06:06;;;;;;;18.48;12.90;;;5.40;55.70;;;;;;5037389;28;20231;-77
2022/01/19 13:08:41;;;;;;;17.33;12.00;;;5.30;56.40;;;;;;5043302;28;20250;-77
2022/01/19 13:11:36;;;;;;;15.57;11.73;;;5.30;56.90;;;;;;5039886;28;20675;-79
2022/01/19 13:14:07;;;;;;;16.75;11.20;;;5.20;57.30;;;;;;5037151;28;20215;-77
2022/01/19 13:16:39;;;;;;;17.55;11.18;;;5.30;57.60;;;;;;5035449;28;20207;-75
2022/01/19 13:19:10;;;;;;;16.13;12.43;;;5.20;57.80;;;;;;5036180;28;20242;-77
2022/01/19 13:21:38;;;;;;;17.75;12.40;;;5.20;57.80;;;;;;5035600;28;20281;-76
2022/01/19 13:24:10;;;;;;;18.40;13.18;;;5.20;58.00;;;;;;5035937;28;20238;-76
2022/01/19 13:26:43;;;;;;;23.50;13.40;;;5.20;58.40;;;;;;5034901;28;20215;-77
2022/01/19 13:29:27;;;;;;;20.20;13.40;;;5.20;58.30;;;;;;5034701;28;20297;-76
2022/01/19 13:32:08;;;;;;;18.50;12.20;;;5.20;58.40;;;;;;5034531;28;20694;-77
2022/01/19 13:34:49;;;;;;;19.55;13.88;;;5.20;58.80;;;;;;5035077;28;20231;-77
2022/01/19 13:37:16;;;;;;;21.67;12.63;;;5.20;59.20;;;;;;5034601;28;20239;-78
2022/01/19 13:39:43;;;;;;;21.27;13.50;;;5.10;59.00;;;;;;5034165;28;20762;-76
2022/01/19 13:42:10;;;;;;;20.90;13.65;;;5.10;59.40;;;;;;5035182;28;20215;-76
2022/01/19 13:44:44;;;;;;;20.25;14.48;;;5.10;59.70;;;;;;5036258;28;20566;-76
2022/01/19 13:47:25;;;;;;;21.38;14.15;;;5.00;59.90;;;;;;5037479;28;20234;-77
2022/01/19 13:49:54;;;;;;;19.52;14.05;;;5.00;60.30;;;;;;5035562;28;20298;-77
2022/01/19 13:52:23;;;;;;;23.95;15.32;;;5.00;60.70;;;;;;5034792;28;20269;-77
2022/01/19 13:54:51;;;;;;;21.20;14.35;;;5.00;60.90;;;;;;5036139;28;20227;-76
2022/01/19 13:57:28;;;;;;;23.13;15.27;;;5.00;60.80;;;;;;5035895;28;20226;-77
2022/01/19 13:59:55;;;;;;;22.30;14.50;;;5.00;61.00;;;;;;5035977;28;20269;-76
2022/01/19 14:02:23;;;;;;;21.45;14.32;;;5.10;60.70;;;;;;5037234;28;20217;-78
2022/01/19 14:04:54;;;;;;;21.65;15.32;;;5.10;60.60;;;;;;5036856;28;20225;-76
2022/01/19 14:07:21;;;;;;;28.13;16.23;;;5.00;60.40;;;;;;5042122;28;20250;-76